createdAt,value
2017-12-03T00:00:54.236Z,75.76
2017-12-03T00:03:20.366Z,75.61
2017-12-03T00:05:46.432Z,75.02
2017-12-03T00:08:12.554Z,75.17
2017-12-03T00:10:38.543Z,75.25
2017-12-03T00:13:04.652Z,75.69
2017-12-03T00:15:30.701Z,75.87
2017-12-03T00:17:56.811Z,75.56
2017-12-03T00:20:22.837Z,75.38
2017-12-03T00:22:48.921Z,75.53
2017-12-03T00:25:15.007Z,75.42
2017-12-03T00:27:41.173Z,75.65
2017-12-03T00:30:07.151Z,75.40
2017-12-03T00:32:33.179Z,75.65
2017-12-03T00:34:59.256Z,75.21
2017-12-03T00:37:25.273Z,74.72
2017-12-03T00:39:51.317Z,74.76
2017-12-03T00:42:17.331Z,75.09
2017-12-03T00:44:43.473Z,75.30
2017-12-03T00:47:09.665Z,75.62
2017-12-03T00:49:35.675Z,75.49
2017-12-03T00:52:01.743Z,75.45
2017-12-03T00:54:27.837Z,75.33
2017-12-03T00:56:53.944Z,75.40
2017-12-03T00:59:19.984Z,75.68
2017-12-03T01:01:46.052Z,75.27
2017-12-03T01:04:12.131Z,75.24
2017-12-03T01:06:38.286Z,74.80
2017-12-03T01:09:04.509Z,75.28
2017-12-03T01:11:30.604Z,75.52
2017-12-03T01:13:56.792Z,75.11
2017-12-03T01:16:23.015Z,75.46
2017-12-03T01:18:49.049Z,75.29
2017-12-03T01:21:15.129Z,74.40
2017-12-03T01:23:42.147Z,75.08
2017-12-03T01:26:08.264Z,75.18
2017-12-03T01:28:34.306Z,75.40
2017-12-03T01:31:00.500Z,75.55
2017-12-03T01:33:26.532Z,75.22
2017-12-03T01:35:52.680Z,75.32
2017-12-03T01:38:18.760Z,75.33
2017-12-03T01:40:44.776Z,75.49
2017-12-03T01:43:10.793Z,75.53
2017-12-03T01:45:36.951Z,76.03
2017-12-03T01:48:03.028Z,75.91
2017-12-03T01:50:29.093Z,75.89
2017-12-03T01:52:55.105Z,76.03
2017-12-03T01:55:21.112Z,76.20
2017-12-03T01:57:47.135Z,76.45
2017-12-03T02:00:13.191Z,76.21
2017-12-03T02:02:39.253Z,76.04
2017-12-03T02:05:05.361Z,76.08
2017-12-03T02:07:31.477Z,75.72
2017-12-03T02:09:57.564Z,75.99
2017-12-03T02:12:23.598Z,75.82
2017-12-03T02:14:49.611Z,76.21
2017-12-03T02:17:15.688Z,76.29
2017-12-03T02:19:41.951Z,76.56
2017-12-03T02:22:07.981Z,76.59
2017-12-03T02:24:34.010Z,76.67
2017-12-03T02:27:00.095Z,76.19
2017-12-03T02:29:26.115Z,76.34
2017-12-03T02:31:52.107Z,75.97
2017-12-03T02:34:18.192Z,76.36
2017-12-03T02:36:44.256Z,76.23
2017-12-03T02:39:10.268Z,76.44
2017-12-03T02:41:36.326Z,76.18
2017-12-03T02:44:02.414Z,76.67
2017-12-03T02:46:28.530Z,76.75
2017-12-03T02:48:54.615Z,77.08
2017-12-03T02:51:20.628Z,77.07
2017-12-03T02:53:46.668Z,77.21
2017-12-03T02:56:12.667Z,77.47
2017-12-03T02:58:38.784Z,77.44
2017-12-03T03:01:04.832Z,77.10
2017-12-03T03:03:30.823Z,76.80
2017-12-03T03:05:56.929Z,76.81
2017-12-03T03:08:23.051Z,77.22
2017-12-03T03:10:49.234Z,76.82
2017-12-03T03:13:15.535Z,77.04
2017-12-03T03:15:41.621Z,77.14
2017-12-03T03:18:07.677Z,77.60
2017-12-03T03:20:33.730Z,76.80
2017-12-03T03:22:59.851Z,77.04
2017-12-03T03:25:25.869Z,76.88
2017-12-03T03:27:51.881Z,77.18
2017-12-03T03:30:17.913Z,77.20
2017-12-03T03:32:44.332Z,77.14
2017-12-03T03:35:10.377Z,77.07
2017-12-03T03:37:36.460Z,76.88
2017-12-03T03:40:02.583Z,77.25
2017-12-03T03:42:28.629Z,77.23
2017-12-03T03:44:54.678Z,76.98
2017-12-03T03:47:21.068Z,76.70
2017-12-03T03:49:47.128Z,76.91
2017-12-03T03:52:13.151Z,76.38
2017-12-03T03:54:39.429Z,76.31
2017-12-03T03:57:05.573Z,76.56
2017-12-03T03:59:31.611Z,76.84
2017-12-03T04:01:57.754Z,76.89
2017-12-03T04:04:23.878Z,77.06
2017-12-03T04:06:50.054Z,77.23
2017-12-03T04:09:16.192Z,76.82
2017-12-03T04:11:42.404Z,77.04
2017-12-03T04:14:08.422Z,76.98
2017-12-03T04:16:34.555Z,76.78
2017-12-03T04:19:00.658Z,76.28
2017-12-03T04:21:26.670Z,76.69
2017-12-03T04:23:52.786Z,76.71
2017-12-03T04:26:25.844Z,76.88
2017-12-03T04:28:51.936Z,76.90
2017-12-03T04:31:18.074Z,76.54
2017-12-03T04:33:44.283Z,76.64
2017-12-03T04:36:10.290Z,76.92
2017-12-03T04:38:36.336Z,76.58
2017-12-03T04:41:02.690Z,77.04
2017-12-03T04:43:28.829Z,76.92
2017-12-03T04:45:54.984Z,77.28
2017-12-03T04:48:21.197Z,76.81
2017-12-03T04:50:47.430Z,76.58
2017-12-03T04:53:13.691Z,77.06
2017-12-03T04:55:39.700Z,77.32
2017-12-03T04:58:05.779Z,76.88
2017-12-03T05:00:32.005Z,76.64
2017-12-03T05:02:58.244Z,76.50
2017-12-03T05:05:24.513Z,76.59
2017-12-03T05:07:50.693Z,76.69
2017-12-03T05:10:16.783Z,76.75
2017-12-03T05:12:42.860Z,76.38
2017-12-03T05:15:09.563Z,76.62
2017-12-03T05:17:35.717Z,76.78
2017-12-03T05:20:01.847Z,76.54
2017-12-03T05:22:27.849Z,76.12
2017-12-03T05:24:53.914Z,76.11
2017-12-03T05:27:20.960Z,76.45
2017-12-03T05:29:47.061Z,76.51
2017-12-03T05:32:13.123Z,76.00
2017-12-03T05:34:39.167Z,76.19
2017-12-03T05:37:05.560Z,76.47
2017-12-03T05:39:38.763Z,76.50
2017-12-03T05:42:04.834Z,76.65
2017-12-03T05:44:31.124Z,76.70
2017-12-03T05:46:57.228Z,76.70
2017-12-03T05:49:23.366Z,76.77
2017-12-03T05:51:49.547Z,77.07
2017-12-03T05:54:15.618Z,77.35
2017-12-03T05:56:41.678Z,77.42
2017-12-03T05:59:07.823Z,77.47
2017-12-03T06:01:34.120Z,77.38
2017-12-03T06:04:00.216Z,77.20
2017-12-03T06:06:26.258Z,76.81
2017-12-03T06:08:52.538Z,76.99
2017-12-03T06:11:18.541Z,77.08
2017-12-03T06:13:45.447Z,77.36
2017-12-03T06:16:11.563Z,77.15
2017-12-03T06:18:37.578Z,77.04
2017-12-03T06:21:03.676Z,77.05
2017-12-03T06:23:29.947Z,77.11
2017-12-03T06:25:56.052Z,77.38
2017-12-03T06:28:22.164Z,77.67
2017-12-03T06:30:48.260Z,77.75
2017-12-03T06:33:14.463Z,78.07
2017-12-03T06:35:40.509Z,77.85
2017-12-03T06:38:06.841Z,77.52
2017-12-03T06:40:32.902Z,77.33
2017-12-03T06:42:59.167Z,77.80
2017-12-03T06:45:25.375Z,77.63
2017-12-03T06:47:51.579Z,77.09
2017-12-03T06:50:17.794Z,77.07
2017-12-03T06:52:44.132Z,77.06
2017-12-03T06:55:10.170Z,76.87
2017-12-03T06:57:36.252Z,77.19
2017-12-03T07:00:02.524Z,76.89
2017-12-03T07:02:28.679Z,76.64
2017-12-03T07:04:54.775Z,77.10
2017-12-03T07:07:20.904Z,77.29
2017-12-03T07:09:46.964Z,76.71
2017-12-03T07:12:13.023Z,76.62
2017-12-03T07:14:39.202Z,76.71
2017-12-03T07:17:05.397Z,76.93
2017-12-03T07:19:31.505Z,76.79
2017-12-03T07:21:57.768Z,76.77
2017-12-03T07:24:24.016Z,76.87
2017-12-03T07:26:50.155Z,76.85
2017-12-03T07:29:16.932Z,76.61
2017-12-03T07:31:43.277Z,76.56
2017-12-03T07:34:09.804Z,76.47
2017-12-03T07:36:36.296Z,76.32
2017-12-03T07:39:02.480Z,76.21
2017-12-03T07:41:28.988Z,76.09
2017-12-03T07:43:55.494Z,75.96
2017-12-03T07:46:22.193Z,75.86
2017-12-03T07:48:48.890Z,75.82
2017-12-03T07:51:15.537Z,75.22
2017-12-03T07:53:41.703Z,74.98
2017-12-03T07:56:07.860Z,74.61
2017-12-03T07:58:33.926Z,74.68
2017-12-03T08:01:00.080Z,74.72
2017-12-03T08:03:26.243Z,74.68
2017-12-03T08:05:52.428Z,74.78
2017-12-03T08:08:18.603Z,74.74
2017-12-03T08:10:44.739Z,74.10
2017-12-03T08:13:10.871Z,73.97
2017-12-03T08:15:37.050Z,73.85
2017-12-03T08:18:03.111Z,73.42
2017-12-03T08:20:29.208Z,72.80
2017-12-03T08:22:55.340Z,73.53
2017-12-03T08:25:21.455Z,72.58
2017-12-03T08:27:47.478Z,72.23
2017-12-03T08:30:13.539Z,72.23
2017-12-03T08:32:39.627Z,71.59
2017-12-03T08:35:05.766Z,71.50
2017-12-03T08:37:32.063Z,71.60
2017-12-03T08:39:58.237Z,71.39
2017-12-03T08:42:24.388Z,71.60
2017-12-03T08:44:51.024Z,71.97
2017-12-03T08:47:17.040Z,72.21
2017-12-03T08:49:43.234Z,71.21
2017-12-03T08:52:09.332Z,70.86
2017-12-03T08:54:35.460Z,71.43
2017-12-03T08:57:01.774Z,70.07
2017-12-03T08:59:27.909Z,70.00
2017-12-03T09:01:54.109Z,70.14
2017-12-03T09:04:20.381Z,69.45
2017-12-03T09:06:46.654Z,68.87
2017-12-03T09:09:13.226Z,68.99
2017-12-03T09:11:39.874Z,69.04
2017-12-03T09:14:06.247Z,69.21
2017-12-03T09:16:32.697Z,69.11
2017-12-03T09:18:59.141Z,68.48
2017-12-03T09:21:25.622Z,68.36
2017-12-03T09:23:52.244Z,68.18
2017-12-03T09:26:18.557Z,67.51
2017-12-03T09:28:45.370Z,67.82
2017-12-03T09:31:11.700Z,67.63
2017-12-03T09:33:38.197Z,68.10
2017-12-03T09:36:04.438Z,66.91
2017-12-03T09:38:30.540Z,66.87
2017-12-03T09:40:56.750Z,67.11
2017-12-03T09:43:22.975Z,67.49
2017-12-03T09:45:49.181Z,67.10
2017-12-03T09:48:15.331Z,67.85
2017-12-03T09:50:41.991Z,66.66
2017-12-03T09:53:08.204Z,66.62
2017-12-03T09:55:35.098Z,66.38
2017-12-03T09:58:01.723Z,66.13
2017-12-03T10:00:29.296Z,65.79
2017-12-03T10:02:55.714Z,65.35
2017-12-03T10:05:22.192Z,65.75
2017-12-03T10:07:52.123Z,65.14
2017-12-03T10:10:18.424Z,64.95
2017-12-03T10:12:45.327Z,65.59
2017-12-03T10:15:11.668Z,65.31
2017-12-03T10:17:38.188Z,65.24
2017-12-03T10:20:04.651Z,65.63
2017-12-03T10:22:31.224Z,65.86
2017-12-03T10:24:57.500Z,65.18
2017-12-03T10:27:23.614Z,65.59
2017-12-03T10:32:23.304Z,64.51
2017-12-03T10:34:51.876Z,64.04
2017-12-03T10:37:18.365Z,63.96
2017-12-03T10:39:45.244Z,63.77
2017-12-03T10:42:12.508Z,63.51
2017-12-03T10:44:39.236Z,63.74
2017-12-03T10:47:06.038Z,61.91
2017-12-03T10:49:32.150Z,62.31
2017-12-03T10:51:58.273Z,61.15
2017-12-03T10:54:24.350Z,61.16
2017-12-03T10:56:50.710Z,61.39
2017-12-03T10:59:16.782Z,61.23
2017-12-03T11:01:42.980Z,61.64
2017-12-03T11:04:09.104Z,60.18
2017-12-03T11:06:35.566Z,60.18
2017-12-03T11:09:01.729Z,60.44
2017-12-03T11:11:28.727Z,61.13
2017-12-03T11:13:55.231Z,61.96
2017-12-03T11:16:21.330Z,62.73
2017-12-03T11:18:47.402Z,61.53
2017-12-03T11:21:13.468Z,61.21
2017-12-03T11:23:39.635Z,60.34
2017-12-03T11:26:05.953Z,60.32
2017-12-03T11:28:32.591Z,58.85
2017-12-03T11:30:58.686Z,58.46
2017-12-03T11:33:24.798Z,57.70
2017-12-03T11:35:50.830Z,57.72
2017-12-03T11:38:16.881Z,58.44
2017-12-03T11:40:43.188Z,58.03
2017-12-03T11:43:09.399Z,58.06
2017-12-03T11:45:35.493Z,57.62
2017-12-03T11:48:01.603Z,56.71
2017-12-03T11:50:27.643Z,57.41
2017-12-03T11:52:53.869Z,55.81
2017-12-03T11:55:19.927Z,54.80
2017-12-03T11:57:46.343Z,53.79
2017-12-03T12:00:12.767Z,52.72
2017-12-03T12:02:39.164Z,51.90
2017-12-03T12:05:05.743Z,51.24
2017-12-03T12:07:31.769Z,50.72
2017-12-03T12:09:58.237Z,49.35
2017-12-03T12:12:25.753Z,49.68
2017-12-03T12:14:52.399Z,50.81
2017-12-03T12:17:18.893Z,51.55
2017-12-03T12:19:44.939Z,52.13
2017-12-03T12:22:10.985Z,52.09
2017-12-03T12:24:37.337Z,52.87
2017-12-03T12:27:03.678Z,53.25
2017-12-03T12:29:30.306Z,52.48
2017-12-03T12:31:56.705Z,53.20
2017-12-03T12:34:23.141Z,53.28
2017-12-03T12:36:49.501Z,52.92
2017-12-03T12:39:15.623Z,53.02
2017-12-03T12:41:41.713Z,52.40
2017-12-03T12:44:07.891Z,52.51
2017-12-03T12:46:34.502Z,51.88
2017-12-03T12:49:01.248Z,53.49
2017-12-03T12:51:27.568Z,53.19
2017-12-03T12:53:53.754Z,52.34
2017-12-03T12:56:20.049Z,53.16
2017-12-03T12:58:46.224Z,53.57
2017-12-03T13:01:12.402Z,54.47
2017-12-03T13:03:38.427Z,55.48
2017-12-03T13:06:05.478Z,55.34
2017-12-03T13:08:31.567Z,55.64
2017-12-03T13:10:57.694Z,55.73
2017-12-03T13:13:23.924Z,56.51
2017-12-03T13:15:50.105Z,56.44
2017-12-03T13:18:16.506Z,56.72
2017-12-03T13:20:42.592Z,56.27
2017-12-03T13:23:08.763Z,55.86
2017-12-03T13:25:34.861Z,55.61
2017-12-03T13:28:01.088Z,56.23
2017-12-03T13:30:27.329Z,57.06
2017-12-03T13:32:53.478Z,56.97
2017-12-03T13:35:19.567Z,56.73
2017-12-03T13:37:45.652Z,56.84
2017-12-03T13:40:11.745Z,55.97
2017-12-03T13:42:37.811Z,56.84
2017-12-03T13:45:03.958Z,56.41
2017-12-03T13:47:30.160Z,57.16
2017-12-03T13:49:56.184Z,57.33
2017-12-03T13:52:22.389Z,57.89
2017-12-03T13:54:48.609Z,58.06
2017-12-03T13:57:14.660Z,58.01
2017-12-03T13:59:40.819Z,58.89
2017-12-03T14:02:07.333Z,59.29
2017-12-03T14:04:33.480Z,58.40
2017-12-03T14:06:59.615Z,59.81
2017-12-03T14:09:25.627Z,58.32
2017-12-03T14:11:51.718Z,59.03
2017-12-03T14:14:17.860Z,59.42
2017-12-03T14:16:45.023Z,58.13
2017-12-03T14:19:11.244Z,59.13
2017-12-03T14:21:37.606Z,58.95
2017-12-03T14:24:03.867Z,59.26
2017-12-03T14:26:30.050Z,60.55
2017-12-03T14:28:56.260Z,60.00
2017-12-03T14:31:22.393Z,59.40
2017-12-03T14:33:48.535Z,60.40
2017-12-03T14:36:14.614Z,60.93
2017-12-03T14:38:41.289Z,60.29
2017-12-03T14:41:07.344Z,61.71
2017-12-03T14:43:33.641Z,61.54
2017-12-03T14:45:59.847Z,61.90
2017-12-03T14:48:26.044Z,61.58
2017-12-03T14:50:52.408Z,61.93
2017-12-03T14:53:18.514Z,62.18
2017-12-03T14:55:44.703Z,62.76
2017-12-03T14:58:10.935Z,62.34
2017-12-03T15:00:37.082Z,63.36
2017-12-03T15:03:03.172Z,63.68
2017-12-03T15:05:29.273Z,63.45
2017-12-03T15:07:55.377Z,64.20
2017-12-03T15:10:21.499Z,63.93
2017-12-03T15:12:47.559Z,64.56
2017-12-03T15:15:13.683Z,65.12
2017-12-03T15:17:39.793Z,65.04
2017-12-03T15:20:06.837Z,65.26
2017-12-03T15:22:33.154Z,65.68
2017-12-03T15:24:59.995Z,66.10
2017-12-03T15:27:26.267Z,65.67
2017-12-03T15:29:52.375Z,65.20
2017-12-03T15:35:11.461Z,66.48
2017-12-03T15:37:37.515Z,66.70
2017-12-03T15:40:03.820Z,67.05
2017-12-03T15:42:30.211Z,66.56
2017-12-03T15:44:56.344Z,66.69
2017-12-03T15:47:22.493Z,66.40
2017-12-03T15:49:48.898Z,67.35
2017-12-03T15:52:15.193Z,67.73
2017-12-03T15:54:41.613Z,68.41
2017-12-03T15:57:07.916Z,68.83
2017-12-03T15:59:34.692Z,69.22
2017-12-03T16:02:01.094Z,69.93
2017-12-03T16:04:27.294Z,70.59
2017-12-03T16:06:53.557Z,71.29
2017-12-03T16:09:20.799Z,71.94
2017-12-03T16:11:47.099Z,72.76
2017-12-03T16:14:13.212Z,73.19
2017-12-03T16:16:39.488Z,73.56
2017-12-03T16:19:05.730Z,73.25
2017-12-03T16:21:31.873Z,72.80
2017-12-03T16:23:58.075Z,73.05
2017-12-03T16:26:24.250Z,73.20
2017-12-03T16:28:50.601Z,73.55
2017-12-03T16:31:16.930Z,73.24
2017-12-03T16:33:44.105Z,73.57
2017-12-03T16:36:10.852Z,73.97
2017-12-03T16:38:37.086Z,74.53
2017-12-03T16:41:03.453Z,74.63
2017-12-03T16:43:29.714Z,74.41
2017-12-03T16:45:56.010Z,73.90
2017-12-03T16:48:22.538Z,73.13
2017-12-03T16:50:49.905Z,72.04
2017-12-03T16:53:16.156Z,71.83
2017-12-03T16:55:42.436Z,71.35
2017-12-03T16:58:08.970Z,71.64
2017-12-03T17:00:35.067Z,71.90
2017-12-03T17:03:01.233Z,73.47
2017-12-03T17:05:27.431Z,74.74
2017-12-03T17:07:53.661Z,74.50
2017-12-03T17:10:19.916Z,75.51
2017-12-03T17:12:46.045Z,74.61
2017-12-03T17:15:12.163Z,75.23
2017-12-03T17:17:38.399Z,74.55
2017-12-03T17:20:04.603Z,74.47
2017-12-03T17:22:31.002Z,74.63
2017-12-03T17:24:57.148Z,74.52
2017-12-03T17:27:23.402Z,74.29
2017-12-03T17:29:49.521Z,74.59
2017-12-03T17:32:16.082Z,74.13
2017-12-03T17:34:42.373Z,74.17
2017-12-03T17:37:08.620Z,74.29
2017-12-03T17:39:35.498Z,74.30
2017-12-03T17:42:01.782Z,74.36
2017-12-03T17:44:27.941Z,74.61
2017-12-03T17:46:54.218Z,74.91
2017-12-03T17:49:20.597Z,75.22
2017-12-03T17:51:46.950Z,75.27
2017-12-03T17:54:13.236Z,75.63
2017-12-03T17:56:39.419Z,75.78
2017-12-03T17:59:05.727Z,76.03
2017-12-03T18:01:31.988Z,76.22
2017-12-03T18:03:58.183Z,76.38
2017-12-03T18:06:24.286Z,76.40
2017-12-03T18:08:50.355Z,76.54
2017-12-03T18:11:16.524Z,76.38
2017-12-03T18:13:42.900Z,76.37
2017-12-03T18:16:09.342Z,76.45
2017-12-03T18:18:35.667Z,76.53
2017-12-03T18:21:01.791Z,76.95
2017-12-03T18:23:27.842Z,77.07
2017-12-03T18:25:54.041Z,77.25
2017-12-03T18:28:20.927Z,77.32
2017-12-03T18:30:47.005Z,77.24
2017-12-03T18:33:13.090Z,77.78
2017-12-03T18:35:39.152Z,77.78
2017-12-03T18:38:05.753Z,77.80
2017-12-03T18:40:31.879Z,77.72
2017-12-03T18:42:57.978Z,78.42
2017-12-03T18:45:24.896Z,77.83
2017-12-03T18:47:51.113Z,78.18
2017-12-03T18:50:17.273Z,78.00
2017-12-03T18:52:43.590Z,78.73
2017-12-03T18:55:09.692Z,77.92
2017-12-03T18:57:35.886Z,79.04
2017-12-03T19:00:02.101Z,79.58
2017-12-03T19:02:28.166Z,79.79
2017-12-03T19:04:54.384Z,79.87
2017-12-03T19:07:20.466Z,79.98
2017-12-03T19:09:46.668Z,80.11
2017-12-03T19:12:12.840Z,80.49
2017-12-03T19:14:39.050Z,80.39
2017-12-03T19:17:05.129Z,80.99
2017-12-03T19:19:31.260Z,81.10
2017-12-03T19:21:57.382Z,81.59
2017-12-03T19:24:24.600Z,82.09
2017-12-03T19:26:52.740Z,82.38
2017-12-03T19:29:18.890Z,82.21
2017-12-03T19:31:44.997Z,82.96
2017-12-03T19:34:11.084Z,83.71
2017-12-03T19:36:37.208Z,84.36
2017-12-03T19:39:03.457Z,84.81
2017-12-03T19:41:29.525Z,85.04
2017-12-03T19:43:55.686Z,85.47
2017-12-03T19:46:22.030Z,85.00
2017-12-03T19:48:48.175Z,85.88
2017-12-03T19:51:14.235Z,86.09
2017-12-03T19:53:40.337Z,86.72
2017-12-03T19:56:06.558Z,87.04
2017-12-03T19:58:32.726Z,87.51
2017-12-03T20:00:58.812Z,87.58
2017-12-03T20:03:24.888Z,87.96
2017-12-03T20:05:51.119Z,87.99
2017-12-03T20:08:17.221Z,87.47
2017-12-03T20:10:43.457Z,87.29
2017-12-03T20:13:09.590Z,88.33
2017-12-03T20:15:35.629Z,88.94
2017-12-03T20:18:01.662Z,89.05
2017-12-03T20:20:27.744Z,89.34
2017-12-03T20:22:53.904Z,89.21
2017-12-03T20:25:20.099Z,89.77
2017-12-03T20:27:46.163Z,90.04
2017-12-03T20:30:12.315Z,90.55
2017-12-03T20:32:38.590Z,90.47
2017-12-03T20:35:04.653Z,90.60
2017-12-03T20:37:30.937Z,90.78
2017-12-03T20:39:58.089Z,90.88
2017-12-03T20:42:24.365Z,90.64
2017-12-03T20:44:50.474Z,90.97
2017-12-03T20:47:17.776Z,91.03
2017-12-03T20:49:43.941Z,91.04
2017-12-03T20:52:10.031Z,91.07
2017-12-03T20:54:36.127Z,91.36
2017-12-03T20:57:03.946Z,91.17
2017-12-03T20:59:30.117Z,91.37
2017-12-03T21:01:56.455Z,91.14
2017-12-03T21:04:22.620Z,90.98
2017-12-03T21:06:48.695Z,91.18
2017-12-03T21:09:15.090Z,91.30
2017-12-03T21:11:41.157Z,91.53
2017-12-03T21:14:07.177Z,91.82
2017-12-03T21:16:33.291Z,91.93
2017-12-03T21:19:00.555Z,92.04
2017-12-03T21:21:26.889Z,91.87
2017-12-03T21:23:52.975Z,92.11
2017-12-03T21:26:19.044Z,92.15
2017-12-03T21:28:45.113Z,92.05
2017-12-03T21:31:11.281Z,92.15
2017-12-03T21:33:37.384Z,92.26
2017-12-03T21:36:03.464Z,92.53
2017-12-03T21:38:29.610Z,92.56
2017-12-03T21:40:55.641Z,92.74
2017-12-03T21:43:21.822Z,92.91
2017-12-03T21:45:48.090Z,92.85
2017-12-03T21:48:14.194Z,92.87
2017-12-03T21:50:40.360Z,93.02
2017-12-03T21:53:06.394Z,93.01
2017-12-03T21:55:32.533Z,93.19
2017-12-03T21:57:58.549Z,93.23
2017-12-03T22:00:24.582Z,93.20
2017-12-03T22:02:50.939Z,93.19
2017-12-03T22:05:17.394Z,93.36
2017-12-03T22:07:45.118Z,93.39
2017-12-03T22:10:11.671Z,93.32
2017-12-03T22:12:37.789Z,93.32
2017-12-03T22:15:04.368Z,93.55
2017-12-03T22:17:30.887Z,93.53
2017-12-03T22:19:57.421Z,93.51
2017-12-03T22:22:23.674Z,93.63
2017-12-03T22:24:50.002Z,93.55
2017-12-03T22:27:16.093Z,93.74
2017-12-03T22:29:42.290Z,93.98
2017-12-03T22:32:08.418Z,93.65
2017-12-03T22:34:34.543Z,93.98
2017-12-03T22:37:00.974Z,94.34
2017-12-03T22:39:27.439Z,94.47
2017-12-03T22:41:53.534Z,94.42
2017-12-03T22:44:19.621Z,94.43
2017-12-03T22:46:45.675Z,94.45
2017-12-03T22:49:12.065Z,94.47
2017-12-03T22:51:38.468Z,94.49
2017-12-03T22:54:04.979Z,94.50
2017-12-03T22:56:31.342Z,94.30
2017-12-03T22:58:57.849Z,94.20
2017-12-03T23:01:24.059Z,94.32
2017-12-03T23:03:50.465Z,94.11
2017-12-03T23:06:16.824Z,94.03
2017-12-03T23:08:43.485Z,94.05
2017-12-03T23:11:09.498Z,94.18
2017-12-03T23:13:35.545Z,94.12
2017-12-03T23:16:01.940Z,94.38
2017-12-03T23:18:28.020Z,94.63
2017-12-03T23:20:54.103Z,94.62
2017-12-03T23:23:20.129Z,94.65
2017-12-03T23:25:46.263Z,94.75
2017-12-03T23:28:12.475Z,94.89
2017-12-03T23:30:38.604Z,94.98
2017-12-03T23:33:04.729Z,95.15
2017-12-03T23:35:30.830Z,95.23
2017-12-03T23:37:56.893Z,95.24
2017-12-03T23:40:22.970Z,95.14
2017-12-03T23:42:48.998Z,95.23
2017-12-03T23:45:15.076Z,95.25
2017-12-03T23:47:41.066Z,95.31
2017-12-03T23:50:07.143Z,95.26
2017-12-03T23:52:33.283Z,95.34
2017-12-03T23:54:59.349Z,95.25
2017-12-03T23:57:25.524Z,95.25
2017-12-03T23:59:51.605Z,95.20
